createdAt,value
2023-09-08T00:00:54.836Z,5.30
2023-09-08T00:03:22.924Z,5.57
2023-09-08T00:05:50.838Z,5.93
2023-09-08T00:08:19.741Z,5.97
2023-09-08T00:10:47.310Z,6.10
2023-09-08T00:13:14.958Z,5.63
2023-09-08T00:15:42.588Z,5.67
2023-09-08T00:18:10.199Z,5.77
2023-09-08T00:20:38.418Z,5.80
2023-09-08T00:23:06.131Z,5.57
2023-09-08T00:25:35.673Z,5.63
2023-09-08T00:28:04.415Z,5.27
2023-09-08T00:30:31.992Z,5.93
2023-09-08T00:32:59.693Z,5.67
2023-09-08T00:35:27.383Z,5.60
2023-09-08T00:37:55.034Z,5.70
2023-09-08T00:40:22.723Z,5.97
2023-09-08T00:42:51.610Z,5.63
2023-09-08T00:45:19.208Z,5.10
2023-09-08T00:47:47.157Z,6.00
2023-09-08T00:50:14.874Z,5.73
2023-09-08T00:52:42.682Z,5.63
2023-09-08T00:55:10.732Z,6.40
2023-09-08T00:57:38.302Z,5.80
2023-09-08T01:00:08.700Z,5.43
2023-09-08T01:02:36.388Z,5.77
2023-09-08T01:05:04.416Z,5.70
2023-09-08T01:07:32.561Z,5.93
2023-09-08T01:10:05.008Z,5.67
2023-09-08T01:12:32.859Z,6.60
2023-09-08T01:15:01.025Z,6.10
2023-09-08T01:17:30.020Z,5.27
2023-09-08T01:19:58.218Z,6.60
2023-09-08T01:22:38.026Z,5.90
2023-09-08T01:25:11.832Z,5.57
2023-09-08T01:27:39.752Z,5.70
2023-09-08T01:30:09.489Z,5.80
2023-09-08T01:32:37.503Z,6.07
2023-09-08T01:35:06.146Z,5.47
2023-09-08T01:37:33.684Z,5.23
2023-09-08T01:40:01.312Z,5.83
2023-09-08T01:42:30.356Z,5.90
2023-09-08T01:44:57.903Z,5.90
2023-09-08T01:47:26.128Z,5.60
2023-09-08T01:49:53.913Z,5.60
2023-09-08T01:52:21.540Z,5.87
2023-09-08T01:54:49.157Z,6.00
2023-09-08T01:57:16.764Z,5.90
2023-09-08T01:59:45.931Z,5.90
2023-09-08T02:02:13.821Z,6.43
2023-09-08T02:04:41.860Z,6.40
2023-09-08T02:07:09.516Z,7.23
2023-09-08T02:09:37.997Z,7.10
2023-09-08T02:12:06.257Z,7.07
2023-09-08T02:14:33.913Z,7.00
2023-09-08T02:17:03.325Z,7.00
2023-09-08T02:19:31.095Z,7.63
2023-09-08T02:21:58.744Z,7.20
2023-09-08T02:24:26.325Z,6.83
2023-09-08T02:26:55.237Z,7.30
2023-09-08T02:29:23.606Z,7.10
2023-09-08T02:31:51.237Z,7.00
2023-09-08T02:34:20.419Z,7.00
2023-09-08T02:36:48.764Z,7.00
2023-09-08T02:39:15.803Z,7.43
2023-09-08T02:41:43.392Z,7.63
2023-09-08T02:44:10.954Z,7.30
2023-09-08T02:46:38.641Z,7.30
2023-09-08T02:49:06.339Z,7.07
2023-09-08T02:51:35.341Z,7.83
2023-09-08T02:54:03.464Z,7.63
2023-09-08T02:56:31.065Z,7.30
2023-09-08T02:58:58.727Z,7.53
2023-09-08T03:01:26.413Z,7.20
2023-09-08T03:03:54.307Z,8.50
2023-09-08T03:06:22.575Z,8.07
2023-09-08T03:08:51.642Z,7.40
2023-09-08T03:11:19.224Z,7.47
2023-09-08T03:13:46.855Z,7.23
2023-09-08T03:16:14.492Z,7.90
2023-09-08T03:18:42.149Z,7.80
2023-09-08T03:21:12.828Z,7.33
2023-09-08T03:23:41.688Z,7.47
2023-09-08T03:26:11.433Z,7.03
2023-09-08T03:28:40.260Z,7.47
2023-09-08T03:31:08.270Z,6.90
2023-09-08T03:33:36.262Z,7.07
2023-09-08T03:36:04.247Z,6.73
2023-09-08T03:38:31.844Z,7.27
2023-09-08T03:40:59.522Z,7.10
2023-09-08T03:43:28.453Z,7.67
2023-09-08T03:45:56.059Z,7.63
2023-09-08T03:48:23.686Z,7.50
2023-09-08T03:50:51.253Z,6.20
2023-09-08T03:53:18.936Z,7.17
2023-09-08T03:55:46.543Z,7.00
2023-09-08T03:58:14.166Z,7.97
2023-09-08T04:00:43.600Z,7.07
2023-09-08T04:03:11.280Z,7.33
2023-09-08T04:05:38.899Z,7.33
2023-09-08T04:08:07.324Z,6.30
2023-09-08T04:10:34.979Z,7.47
2023-09-08T04:13:02.581Z,6.80
2023-09-08T04:15:30.163Z,6.83
2023-09-08T04:17:59.272Z,6.60
2023-09-08T04:20:27.083Z,6.87
2023-09-08T04:22:54.662Z,7.00
2023-09-08T04:25:22.861Z,7.37
2023-09-08T04:27:50.450Z,6.93
2023-09-08T04:30:19.656Z,6.93
2023-09-08T04:32:47.313Z,7.53
2023-09-08T04:35:16.419Z,6.87
2023-09-08T04:37:44.064Z,7.93
2023-09-08T04:40:12.168Z,8.10
2023-09-08T04:42:39.851Z,7.93
2023-09-08T04:45:08.540Z,8.77
2023-09-08T04:47:36.113Z,8.20
2023-09-08T04:50:03.782Z,8.30
2023-09-08T04:52:32.771Z,7.77
2023-09-08T04:55:00.394Z,8.03
2023-09-08T04:57:28.096Z,8.27
2023-09-08T04:59:55.728Z,7.90
2023-09-08T05:02:23.536Z,8.57
2023-09-08T05:04:51.210Z,9.03
2023-09-08T05:07:20.013Z,8.90
2023-09-08T05:09:48.983Z,9.43
2023-09-08T05:12:16.565Z,10.93
2023-09-08T05:14:44.170Z,11.10
2023-09-08T05:17:11.753Z,12.20
2023-09-08T05:19:39.436Z,10.97
2023-09-08T05:22:07.502Z,10.90
2023-09-08T05:24:35.185Z,10.53
2023-09-08T05:27:04.297Z,10.20
2023-09-08T05:29:31.852Z,10.97
2023-09-08T05:31:59.404Z,9.27
2023-09-08T05:34:27.017Z,10.43
2023-09-08T05:36:54.610Z,9.20
2023-09-08T05:39:22.220Z,10.30
2023-09-08T05:41:50.004Z,10.40
2023-09-08T05:44:18.891Z,8.87
2023-09-08T05:46:46.668Z,10.13
2023-09-08T05:49:15.258Z,8.27
2023-09-08T05:51:42.936Z,8.90
2023-09-08T05:54:10.510Z,9.13
2023-09-08T05:56:39.027Z,10.07
2023-09-08T05:59:06.752Z,8.60
2023-09-08T06:01:35.723Z,8.87
2023-09-08T06:04:03.451Z,8.53
2023-09-08T06:06:31.193Z,8.10
2023-09-08T06:08:58.793Z,8.80
2023-09-08T06:11:26.381Z,7.90
2023-09-08T06:13:56.969Z,7.60
2023-09-08T06:16:23.719Z,7.70
2023-09-08T06:18:52.676Z,7.73
2023-09-08T06:21:20.328Z,7.60
2023-09-08T06:23:48.638Z,7.70
2023-09-08T06:26:16.419Z,6.87
2023-09-08T06:28:45.055Z,7.00
2023-09-08T06:31:12.858Z,7.37
2023-09-08T06:33:40.727Z,7.10
2023-09-08T06:36:09.773Z,6.67
2023-09-08T06:38:38.461Z,8.00
2023-09-08T06:41:11.054Z,7.27
2023-09-08T06:43:38.828Z,7.53
2023-09-08T06:46:06.737Z,7.53
2023-09-08T06:48:34.526Z,7.40
2023-09-08T06:51:02.381Z,7.37
2023-09-08T06:53:32.197Z,7.40
2023-09-08T06:55:59.871Z,6.50
2023-09-08T06:58:27.500Z,6.93
2023-09-08T07:00:55.963Z,6.93
2023-09-08T07:03:24.328Z,6.67
2023-09-08T07:05:52.574Z,6.80
2023-09-08T07:08:24.039Z,6.50
2023-09-08T07:10:55.621Z,6.07
2023-09-08T07:13:23.401Z,6.47
2023-09-08T07:15:51.020Z,5.67
2023-09-08T07:18:18.705Z,5.80
2023-09-08T07:20:49.017Z,5.90
2023-09-08T07:23:18.160Z,6.00
2023-09-08T07:25:47.809Z,6.00
2023-09-08T07:28:17.026Z,5.80
2023-09-08T07:30:44.943Z,6.30
2023-09-08T07:33:13.001Z,5.20
2023-09-08T07:35:41.627Z,5.00
2023-09-08T07:38:09.945Z,5.30
2023-09-08T07:40:37.964Z,4.73
2023-09-08T07:43:06.056Z,5.57
2023-09-08T07:45:35.021Z,5.67
2023-09-08T07:48:02.663Z,5.50
2023-09-08T07:50:32.276Z,5.93
2023-09-08T07:53:00.054Z,5.93
2023-09-08T07:55:29.761Z,5.20
2023-09-08T07:57:58.471Z,5.17
2023-09-08T08:00:26.463Z,5.43
2023-09-08T08:02:56.634Z,4.97
2023-09-08T08:05:24.621Z,5.27
2023-09-08T08:07:52.259Z,5.27
2023-09-08T08:10:20.267Z,5.20
2023-09-08T08:12:47.917Z,5.40
2023-09-08T08:15:15.736Z,5.40
2023-09-08T08:17:43.723Z,4.83
2023-09-08T08:20:18.895Z,4.57
2023-09-08T08:22:47.186Z,4.83
2023-09-08T08:25:15.235Z,5.03
2023-09-08T08:27:43.161Z,5.17
2023-09-08T08:30:12.582Z,4.93
2023-09-08T08:32:40.489Z,5.53
2023-09-08T08:35:08.525Z,5.10
2023-09-08T08:37:37.557Z,5.27
2023-09-08T08:40:06.467Z,4.53
2023-09-08T08:42:34.371Z,5.30
2023-09-08T08:45:02.399Z,4.70
2023-09-08T08:47:31.047Z,5.30
2023-09-08T08:50:00.430Z,5.13
2023-09-08T08:52:28.719Z,5.57
2023-09-08T08:54:58.292Z,5.00
2023-09-08T08:57:28.575Z,5.20
2023-09-08T08:59:56.306Z,5.07
2023-09-08T09:02:24.577Z,5.77
2023-09-08T09:04:53.225Z,5.30
2023-09-08T09:07:21.102Z,4.97
2023-09-08T09:09:48.787Z,5.63
2023-09-08T09:12:18.400Z,6.00
2023-09-08T09:14:49.293Z,5.37
2023-09-08T09:17:17.359Z,5.73
2023-09-08T09:19:44.892Z,5.47
2023-09-08T09:22:12.678Z,5.30
2023-09-08T09:24:42.469Z,4.93
2023-09-08T09:27:10.838Z,5.10
2023-09-08T09:29:47.134Z,5.77
2023-09-08T09:32:15.053Z,5.53
2023-09-08T09:34:50.984Z,5.20
2023-09-08T09:37:18.926Z,5.23
2023-09-08T09:39:50.552Z,5.13
2023-09-08T09:42:18.720Z,6.20
2023-09-08T09:44:48.986Z,5.50
2023-09-08T09:47:17.544Z,6.13
2023-09-08T09:49:46.042Z,5.53
2023-09-08T09:52:15.108Z,5.00
2023-09-08T09:54:43.435Z,5.50
2023-09-08T09:57:15.064Z,5.20
2023-09-08T09:59:43.347Z,5.60
2023-09-08T10:02:15.054Z,5.10
2023-09-08T10:04:43.162Z,4.80
2023-09-08T10:07:11.327Z,5.03
2023-09-08T10:09:39.125Z,5.43
2023-09-08T10:12:07.406Z,5.13
2023-09-08T10:14:37.981Z,5.60
2023-09-08T10:17:07.780Z,4.63
2023-09-08T10:19:43.636Z,5.07
2023-09-08T10:22:14.392Z,4.83
2023-09-08T10:24:43.047Z,5.47
2023-09-08T10:27:12.772Z,5.27
2023-09-08T10:29:40.775Z,5.73
2023-09-08T10:32:09.895Z,5.40
2023-09-08T10:34:39.279Z,5.37
2023-09-08T10:37:21.824Z,5.60
2023-09-08T10:39:49.607Z,5.27
2023-09-08T10:42:27.016Z,5.03
2023-09-08T10:44:59.099Z,5.67
2023-09-08T10:47:27.455Z,5.77
2023-09-08T10:50:00.731Z,5.20
2023-09-08T10:52:29.744Z,5.30
2023-09-08T10:54:57.699Z,5.33
2023-09-08T10:57:26.286Z,5.43
2023-09-08T10:59:55.130Z,5.30
2023-09-08T11:02:39.032Z,5.07
2023-09-08T11:05:10.516Z,5.27
2023-09-08T11:07:39.081Z,4.80
2023-09-08T11:10:08.302Z,5.20
2023-09-08T11:12:36.228Z,5.10
2023-09-08T11:15:06.283Z,4.30
2023-09-08T11:17:35.520Z,5.50
2023-09-08T11:20:09.490Z,5.03
2023-09-08T11:22:40.341Z,4.50
2023-09-08T11:25:09.935Z,3.93
2023-09-08T11:27:37.829Z,4.70
2023-09-08T11:30:06.444Z,5.13
2023-09-08T11:32:34.825Z,4.80
2023-09-08T11:35:04.741Z,4.53
2023-09-08T11:37:32.336Z,5.30
2023-09-08T11:40:01.374Z,4.67
2023-09-08T11:42:29.722Z,4.90
2023-09-08T11:44:59.414Z,4.90
2023-09-08T11:47:27.017Z,5.00
2023-09-08T11:49:55.256Z,4.67
2023-09-08T11:52:24.965Z,4.83
2023-09-08T11:55:06.363Z,4.87
2023-09-08T11:57:36.637Z,4.57
2023-09-08T12:00:06.656Z,5.37
2023-09-08T12:02:37.372Z,4.80
2023-09-08T12:05:05.146Z,5.00
2023-09-08T12:07:32.994Z,4.90
2023-09-08T12:10:00.692Z,3.83
2023-09-08T12:12:28.710Z,4.37
2023-09-08T12:14:57.655Z,4.00
2023-09-08T12:17:27.244Z,3.97
2023-09-08T12:19:55.448Z,4.10
2023-09-08T12:22:23.533Z,4.07
2023-09-08T12:24:58.200Z,4.00
2023-09-08T12:27:25.877Z,4.40
2023-09-08T12:29:55.263Z,4.40
2023-09-08T12:32:24.258Z,4.40
2023-09-08T12:34:52.962Z,4.00
2023-09-08T12:37:24.159Z,4.13
2023-09-08T12:39:52.200Z,4.00
2023-09-08T12:42:20.644Z,3.70
2023-09-08T12:44:48.953Z,3.57
2023-09-08T12:47:16.591Z,4.50
2023-09-08T12:49:45.515Z,3.90
2023-09-08T12:52:13.103Z,4.23
2023-09-08T12:54:40.713Z,4.10
2023-09-08T12:57:08.318Z,4.10
2023-09-08T12:59:36.038Z,3.88
2023-09-08T13:02:03.766Z,3.60
2023-09-08T13:04:31.346Z,3.60
2023-09-08T13:07:02.471Z,3.78
2023-09-08T13:09:30.106Z,3.90
2023-09-08T13:11:57.696Z,3.70
2023-09-08T13:14:25.876Z,4.13
2023-09-08T13:16:53.453Z,4.40
2023-09-08T13:19:21.021Z,4.22
2023-09-08T13:21:48.645Z,3.92
2023-09-08T13:24:17.611Z,3.58
2023-09-08T13:26:45.269Z,3.58
2023-09-08T13:29:12.850Z,3.70
2023-09-08T13:31:40.774Z,3.70
2023-09-08T13:34:08.922Z,3.42
2023-09-08T13:36:36.636Z,22.70
2023-09-08T13:39:04.882Z,5.82
2023-09-08T13:41:47.938Z,20.95
2023-09-08T13:44:15.633Z,5.65
2023-09-08T13:46:43.270Z,4.75
2023-09-08T13:49:12.484Z,3.80
2023-09-08T13:51:42.389Z,4.70
2023-09-08T13:54:12.881Z,3.80
2023-09-08T13:56:44.469Z,4.32
2023-09-08T13:59:17.958Z,4.03
2023-09-08T14:01:56.250Z,3.97
2023-09-08T14:04:34.656Z,6.32
2023-09-08T14:07:09.592Z,4.57
2023-09-08T14:09:54.409Z,3.97
2023-09-08T14:14:57.496Z,4.30
2023-09-08T14:17:25.026Z,4.13
2023-09-08T14:19:52.693Z,4.03
2023-09-08T14:22:20.273Z,4.45
2023-09-08T14:24:47.800Z,4.05
2023-09-08T14:27:15.394Z,3.95
2023-09-08T14:29:43.028Z,3.95
2023-09-08T14:32:11.961Z,4.03
2023-09-08T14:34:39.551Z,3.78
2023-09-08T14:37:10.726Z,3.70
2023-09-08T14:39:38.990Z,3.38
2023-09-08T14:42:07.084Z,3.58
2023-09-08T14:44:34.782Z,4.00
2023-09-08T14:47:02.354Z,3.88
2023-09-08T14:49:31.261Z,4.32
2023-09-08T14:51:59.233Z,4.40
2023-09-08T14:54:27.289Z,4.00
2023-09-08T14:56:54.869Z,4.18
2023-09-08T14:59:22.438Z,4.35
2023-09-08T15:01:52.162Z,3.80
2023-09-08T15:04:20.016Z,3.90
2023-09-08T15:06:49.155Z,4.13
2023-09-08T15:09:17.337Z,4.45
2023-09-08T15:11:44.931Z,4.38
2023-09-08T15:14:13.599Z,4.20
2023-09-08T15:16:41.198Z,4.37
2023-09-08T15:19:08.892Z,4.23
2023-09-08T15:21:36.930Z,4.43
2023-09-08T15:24:07.198Z,4.60
2023-09-08T15:26:34.935Z,5.10
2023-09-08T15:29:02.490Z,4.47
2023-09-08T15:31:30.174Z,4.47
2023-09-08T15:33:57.983Z,4.40
2023-09-08T15:36:25.586Z,4.23
2023-09-08T15:38:53.172Z,4.83
2023-09-08T15:41:22.189Z,4.27
2023-09-08T15:43:52.474Z,4.40
2023-09-08T15:46:20.749Z,4.63
2023-09-08T15:48:49.072Z,4.20
2023-09-08T15:51:17.100Z,4.17
2023-09-08T15:53:44.930Z,4.27
2023-09-08T15:56:13.135Z,4.17
2023-09-08T15:58:42.097Z,4.63
2023-09-08T16:01:09.764Z,4.10
2023-09-08T16:03:38.086Z,4.43
2023-09-08T16:06:06.024Z,5.00
2023-09-08T16:08:33.891Z,4.47
2023-09-08T16:11:02.158Z,4.93
2023-09-08T16:13:29.780Z,4.73
2023-09-08T16:15:58.846Z,4.63
2023-09-08T16:18:26.779Z,4.20
2023-09-08T16:20:54.475Z,4.60
2023-09-08T16:23:22.287Z,4.33
2023-09-08T16:25:49.984Z,4.13
2023-09-08T16:28:18.672Z,4.13
2023-09-08T16:30:46.340Z,4.67
2023-09-08T16:33:15.728Z,4.77
2023-09-08T16:35:43.505Z,4.43
2023-09-08T16:38:13.010Z,4.40
2023-09-08T16:40:40.622Z,4.53
2023-09-08T16:43:08.198Z,4.63
2023-09-08T16:45:35.840Z,4.33
2023-09-08T16:48:03.453Z,4.43
2023-09-08T16:50:32.344Z,4.77
2023-09-08T16:53:00.016Z,4.80
2023-09-08T16:55:27.637Z,4.73
2023-09-08T16:57:55.276Z,4.90
2023-09-08T17:00:23.123Z,4.57
2023-09-08T17:02:50.850Z,5.13
2023-09-08T17:05:18.732Z,5.03
2023-09-08T17:07:47.710Z,4.73
2023-09-08T17:10:15.444Z,4.27
2023-09-08T17:12:43.157Z,4.67
2023-09-08T17:15:11.997Z,4.70
2023-09-08T17:17:39.611Z,4.07
2023-09-08T17:20:08.764Z,4.60
2023-09-08T17:22:36.977Z,4.40
2023-09-08T17:25:06.542Z,4.70
2023-09-08T17:27:34.190Z,4.70
2023-09-08T17:30:02.210Z,4.60
2023-09-08T17:32:29.835Z,4.60
2023-09-08T17:34:57.728Z,4.80
2023-09-08T17:37:25.391Z,4.83
2023-09-08T17:39:52.968Z,5.20
2023-09-08T17:42:21.983Z,7.40
2023-09-08T17:44:49.538Z,5.83
2023-09-08T17:47:17.077Z,6.10
2023-09-08T17:49:44.796Z,7.17
2023-09-08T17:52:12.433Z,7.30
2023-09-08T17:54:40.086Z,7.63
2023-09-08T17:57:07.681Z,6.20
2023-09-08T17:59:36.565Z,6.70
2023-09-08T18:02:04.453Z,6.53
2023-09-08T18:04:32.139Z,6.27
2023-09-08T18:06:59.809Z,6.47
2023-09-08T18:09:28.606Z,5.77
2023-09-08T18:11:56.221Z,5.77
2023-09-08T18:14:23.895Z,5.93
2023-09-08T18:16:53.498Z,6.10
2023-09-08T18:19:21.290Z,5.70
2023-09-08T18:21:48.937Z,6.97
2023-09-08T18:24:16.496Z,7.27
2023-09-08T18:26:44.035Z,7.03
2023-09-08T18:29:11.582Z,8.27
2023-09-08T18:31:39.482Z,7.57
2023-09-08T18:34:09.731Z,7.57
2023-09-08T18:36:37.290Z,7.70
2023-09-08T18:39:05.614Z,8.10
2023-09-08T18:41:33.219Z,7.47
2023-09-08T18:44:00.802Z,7.80
2023-09-08T18:46:28.590Z,7.00
2023-09-08T18:48:56.156Z,7.67
2023-09-08T18:51:25.055Z,7.30
2023-09-08T18:53:52.628Z,7.20
2023-09-08T18:56:20.426Z,6.07
2023-09-08T18:58:48.111Z,8.20
2023-09-08T19:01:16.088Z,9.00
2023-09-08T19:03:43.831Z,8.90
2023-09-08T19:06:11.830Z,8.50
2023-09-08T19:08:40.806Z,7.60
2023-09-08T19:11:08.528Z,7.80
2023-09-08T19:13:36.439Z,7.50
2023-09-08T19:16:04.461Z,7.40
2023-09-08T19:18:32.023Z,7.53
2023-09-08T19:20:59.672Z,6.93
2023-09-08T19:23:27.248Z,7.47
2023-09-08T19:25:56.184Z,8.00
2023-09-08T19:28:23.771Z,8.53
2023-09-08T19:30:51.922Z,7.90
2023-09-08T19:33:19.840Z,7.90
2023-09-08T19:35:47.526Z,7.73
2023-09-08T19:38:15.312Z,6.90
2023-09-08T19:40:42.892Z,10.40
2023-09-08T19:43:11.792Z,10.80
2023-09-08T19:45:39.740Z,11.40
2023-09-08T19:48:08.364Z,10.33
2023-09-08T19:50:36.229Z,9.83
2023-09-08T19:53:03.967Z,11.77
2023-09-08T19:55:31.923Z,10.33
2023-09-08T19:57:59.521Z,8.17
2023-09-08T20:00:28.537Z,10.10
2023-09-08T20:02:57.831Z,8.17
2023-09-08T20:05:25.563Z,8.47
2023-09-08T20:07:53.131Z,8.33
2023-09-08T20:10:21.836Z,9.07
2023-09-08T20:12:51.296Z,10.57
2023-09-08T20:15:19.032Z,9.47
2023-09-08T20:17:48.073Z,7.90
2023-09-08T20:20:16.434Z,7.40
2023-09-08T20:22:44.097Z,7.87
2023-09-08T20:25:11.680Z,7.17
2023-09-08T20:27:39.303Z,7.93
2023-09-08T20:30:08.357Z,7.50
2023-09-08T20:32:36.146Z,8.17
2023-09-08T20:35:05.671Z,8.07
2023-09-08T20:37:33.970Z,8.53
2023-09-08T20:40:02.287Z,8.53
2023-09-08T20:42:29.872Z,13.57
2023-09-08T20:44:57.830Z,10.33
2023-09-08T20:47:25.495Z,9.37
2023-09-08T20:49:53.210Z,8.10
2023-09-08T20:52:22.108Z,8.03
2023-09-08T20:54:49.720Z,8.67
2023-09-08T20:57:18.428Z,7.50
2023-09-08T20:59:45.996Z,7.97
2023-09-08T21:02:13.563Z,7.80
2023-09-08T21:04:41.216Z,8.90
2023-09-08T21:07:08.889Z,8.80
2023-09-08T21:09:38.113Z,10.00
2023-09-08T21:12:06.377Z,10.53
2023-09-08T21:14:33.975Z,9.67
2023-09-08T21:17:01.617Z,8.47
2023-09-08T21:19:29.989Z,8.70
2023-09-08T21:21:57.656Z,10.20
2023-09-08T21:24:25.448Z,10.53
2023-09-08T21:26:54.340Z,10.10
2023-09-08T21:29:21.918Z,10.07
2023-09-08T21:31:50.964Z,9.13
2023-09-08T21:34:19.280Z,12.50
2023-09-08T21:36:47.543Z,9.67
2023-09-08T21:39:15.648Z,9.27
2023-09-08T21:41:43.376Z,10.23
2023-09-08T21:44:12.499Z,10.77
2023-09-08T21:46:40.114Z,9.90
2023-09-08T21:49:10.026Z,9.97
2023-09-08T21:51:37.932Z,8.63
2023-09-08T21:54:06.002Z,9.70
2023-09-08T21:56:33.550Z,8.97
2023-09-08T21:59:01.249Z,8.93
2023-09-08T22:01:30.222Z,9.20
2023-09-08T22:03:58.090Z,8.93
2023-09-08T22:06:25.858Z,9.77
2023-09-08T22:08:53.395Z,9.63
2023-09-08T22:11:21.006Z,8.87
2023-09-08T22:13:48.815Z,9.27
2023-09-08T22:16:16.529Z,9.00
2023-09-08T22:18:45.703Z,9.20
2023-09-08T22:21:13.332Z,10.87
2023-09-08T22:23:40.898Z,9.77
2023-09-08T22:26:15.766Z,9.63
2023-09-08T22:28:44.937Z,9.87
2023-09-08T22:31:13.310Z,9.90
2023-09-08T22:33:41.839Z,9.50
2023-09-08T22:36:11.236Z,9.40
2023-09-08T22:38:38.911Z,10.00
2023-09-08T22:41:06.540Z,9.57
2023-09-08T22:43:34.427Z,9.43
2023-09-08T22:46:02.240Z,9.73
2023-09-08T22:48:29.801Z,9.23
2023-09-08T22:50:57.398Z,9.43
2023-09-08T22:53:26.508Z,10.30
2023-09-08T22:55:54.233Z,9.77
2023-09-08T22:58:21.859Z,10.57
2023-09-08T23:00:49.494Z,10.07
2023-09-08T23:03:17.739Z,10.67
2023-09-08T23:05:45.347Z,10.30
2023-09-08T23:08:12.969Z,9.73
2023-09-08T23:10:41.899Z,10.10
2023-09-08T23:13:09.549Z,9.60
2023-09-08T23:15:37.165Z,10.10
2023-09-08T23:18:05.664Z,10.20
2023-09-08T23:20:33.245Z,9.07
2023-09-08T23:23:00.921Z,10.27
2023-09-08T23:25:28.485Z,9.77
2023-09-08T23:27:57.388Z,9.63
2023-09-08T23:30:25.149Z,10.20
2023-09-08T23:32:52.996Z,10.00
2023-09-08T23:35:21.412Z,10.60
2023-09-08T23:37:49.026Z,9.80
2023-09-08T23:40:16.914Z,10.03
2023-09-08T23:42:44.444Z,10.67
2023-09-08T23:45:13.806Z,10.37
2023-09-08T23:47:41.460Z,10.37
2023-09-08T23:50:10.044Z,10.37
2023-09-08T23:52:37.650Z,10.67
2023-09-08T23:55:06.229Z,11.03
2023-09-08T23:57:33.813Z,11.03
